Time;durP1;ratioP1;P1;durP2;ratioP2;P2;SDS_P1;SDS_P2;PMS_P1;PMS_P2;Temp;Humidity;BMP_temperature;BMP_pressure;BME280_temperature;BME280_humidity;BME280_pressure;Samples;Min_cycle;Max_cycle;Signal;HPM_P1;HPM_P2
2024/04/04 00:01:11;;;;;;;14.10;3.40;;;;;;;10.03;52.12;100940.38;107597;1254;114462;-62
2024/04/04 00:03:47;;;;;;;12.80;2.70;;;;;;;10.02;52.17;100940.85;107647;1252;108119;-63
2024/04/04 00:06:15;;;;;;;6.80;2.40;;;;;;;9.99;52.42;100943.39;107591;1250;108652;-61
2024/04/04 00:08:44;;;;;;;10.00;2.30;;;;;;;9.96;52.47;100946.39;107611;1253;100529;-60
2024/04/04 00:11:17;;;;;;;10.90;2.70;;;;;;;9.91;52.70;100946.46;107623;1254;101067;-62
2024/04/04 00:13:45;;;;;;;11.80;2.60;;;;;;;9.84;52.82;100949.63;107641;1253;114524;-61
2024/04/04 00:16:14;;;;;;;6.30;2.70;;;;;;;9.82;52.98;100953.23;107601;1252;108329;-61
2024/04/04 00:18:43;;;;;;;15.20;2.50;;;;;;;9.80;52.91;100945.70;107602;1253;108115;-61
2024/04/04 00:21:11;;;;;;;13.70;2.30;;;;;;;9.79;53.12;100942.95;107525;1253;100687;-62
2024/04/04 00:23:39;;;;;;;6.20;2.30;;;;;;;9.78;53.02;100938.86;107558;1253;100667;-62
2024/04/04 00:26:07;;;;;;;5.40;2.10;;;;;;;9.79;52.98;100940.05;107559;1254;113614;-63
2024/04/04 00:28:35;;;;;;;5.10;2.10;;;;;;;9.82;53.15;100943.02;107579;1253;107980;-62
2024/04/04 00:31:03;;;;;;;8.40;2.30;;;;;;;9.84;52.81;100942.35;107527;1253;107872;-63
2024/04/04 00:33:31;;;;;;;4.50;1.90;;;;;;;9.84;53.10;100943.05;107541;1253;100524;-62
2024/04/04 00:36:00;;;;;;;6.70;1.80;;;;;;;9.84;52.95;100939.13;107577;1253;100526;-62
2024/04/04 00:38:29;;;;;;;11.80;2.30;;;;;;;9.85;53.13;100933.29;107600;1256;114980;-62
2024/04/04 00:40:57;;;;;;;3.80;1.90;;;;;;;9.86;53.13;100931.91;107538;1254;108707;-61
2024/04/04 00:43:25;;;;;;;4.70;1.70;;;;;;;9.87;53.05;100925.24;107532;1254;108689;-61
2024/04/04 00:45:53;;;;;;;4.20;2.30;;;;;;;9.85;53.08;100926.14;107427;1254;100552;-60
2024/04/04 00:48:21;;;;;;;9.00;2.40;;;;;;;9.85;53.20;100930.05;107582;1254;100542;-62
2024/04/04 00:50:52;;;;;;;6.70;1.90;;;;;;;9.86;53.08;100927.98;107573;1253;113697;-60
2024/04/04 00:53:23;;;;;;;2.80;1.70;;;;;;;9.88;52.99;100924.83;107619;1254;107539;-61
2024/04/04 00:55:52;;;;;;;7.40;1.80;;;;;;;9.88;52.89;100925.66;107580;1252;107109;-62
2024/04/04 00:58:21;;;;;;;8.20;1.70;;;;;;;9.90;53.03;100920.35;107570;1255;100650;-61
2024/04/04 01:00:51;;;;;;;7.30;1.70;;;;;;;9.92;52.89;100924.52;107633;1253;100421;-62
2024/04/04 01:03:19;;;;;;;10.40;1.90;;;;;;;9.92;52.98;100917.98;107563;1254;114113;-62
2024/04/04 01:05:47;;;;;;;7.80;1.80;;;;;;;9.93;53.34;100918.48;107589;1253;107643;-63
2024/04/04 01:08:16;;;;;;;5.70;2.50;;;;;;;9.91;53.30;100920.98;107436;1253;108160;-61
2024/04/04 01:10:44;;;;;;;9.20;2.40;;;;;;;9.90;53.36;100915.55;107542;1253;100529;-61
2024/04/04 01:13:13;;;;;;;7.70;1.80;;;;;;;9.88;53.40;100918.33;107467;1253;101073;-62
2024/04/04 01:15:41;;;;;;;8.80;1.90;;;;;;;9.87;53.41;100911.95;107543;1253;114548;-62
2024/04/04 01:18:09;;;;;;;5.20;1.90;;;;;;;9.87;53.31;100905.16;107576;1253;107329;-60
2024/04/04 01:20:37;;;;;;;5.80;1.60;;;;;;;9.87;53.64;100901.91;107539;1252;107725;-62
2024/04/04 01:23:05;;;;;;;3.30;1.40;;;;;;;9.87;53.47;100898.33;107549;1254;100535;-62
2024/04/04 01:25:34;;;;;;;3.70;1.80;;;;;;;9.89;53.37;100892.54;107551;1255;101045;-61
2024/04/04 01:28:02;;;;;;;4.90;1.40;;;;;;;9.90;53.38;100896.54;107508;1253;115412;-61
2024/04/04 01:30:30;;;;;;;7.40;1.70;;;;;;;9.92;53.55;100895.41;107500;1254;108716;-62
2024/04/04 01:32:58;;;;;;;7.70;1.50;;;;;;;9.93;53.49;100894.97;107615;1254;108654;-62
2024/04/04 01:35:27;;;;;;;2.10;1.40;;;;;;;9.94;53.36;100891.84;107536;1253;101168;-62
2024/04/04 01:37:55;;;;;;;3.20;1.90;;;;;;;9.95;53.41;100893.23;107551;1252;102020;-62
2024/04/04 01:40:23;;;;;;;6.20;1.90;;;;;;;9.95;53.35;100896.81;107526;1254;114240;-63
2024/04/04 01:42:51;;;;;;;11.10;2.00;;;;;;;9.94;53.31;100896.39;107588;1253;108324;-62
2024/04/04 01:45:19;;;;;;;8.10;1.60;;;;;;;9.91;53.40;100901.23;107522;1253;107337;-62
2024/04/04 01:47:47;;;;;;;5.90;2.00;;;;;;;9.90;53.39;100896.35;107536;1254;100686;-60
2024/04/04 01:50:16;;;;;;;6.40;1.80;;;;;;;9.89;53.40;100900.35;107519;1256;100447;-61
2024/04/04 01:52:44;;;;;;;11.60;1.80;;;;;;;9.88;53.50;100899.40;107596;1250;115006;-62
2024/04/04 01:55:13;;;;;;;7.10;1.80;;;;;;;9.86;53.75;100903.65;107636;1251;107659;-62
2024/04/04 01:57:41;;;;;;;5.40;1.60;;;;;;;9.84;53.61;100906.48;107669;1251;106989;-63
2024/04/04 02:00:10;;;;;;;9.70;2.10;;;;;;;9.84;53.67;100906.98;107572;1254;100396;-61
2024/04/04 02:02:41;;;;;;;4.80;1.80;;;;;;;9.84;53.80;100912.77;107553;1251;100656;-61
2024/04/04 02:05:09;;;;;;;5.00;1.70;;;;;;;9.83;53.51;100916.22;107592;1251;114430;-62
2024/04/04 02:07:37;;;;;;;4.50;1.50;;;;;;;9.82;53.81;100919.88;107562;1252;107787;-61
2024/04/04 02:10:05;;;;;;;6.70;1.40;;;;;;;9.82;53.94;100919.06;107535;1251;108263;-63
2024/04/04 02:12:34;;;;;;;5.80;1.50;;;;;;;9.81;53.95;100921.95;107582;1251;100894;-63
2024/04/04 02:15:03;;;;;;;4.80;2.00;;;;;;;9.82;53.99;100917.27;107639;1250;101057;-62
2024/04/04 02:17:31;;;;;;;7.10;1.90;;;;;;;9.81;53.88;100917.28;107622;1251;113046;-61
2024/04/04 02:19:59;;;;;;;6.10;1.80;;;;;;;9.79;54.08;100924.44;107634;1251;108261;-63
2024/04/04 02:22:28;;;;;;;7.60;1.90;;;;;;;9.76;54.27;100925.98;107576;1254;108786;-61
2024/04/04 02:24:56;;;;;;;4.00;1.60;;;;;;;9.73;54.29;100926.97;107493;1251;100560;-62
2024/04/04 02:27:24;;;;;;;6.50;2.10;;;;;;;9.70;54.35;100924.80;107587;1251;101205;-62
2024/04/04 02:29:52;;;;;;;6.60;1.90;;;;;;;9.69;54.54;100924.94;107638;1251;114063;-62
2024/04/04 02:32:21;;;;;;;10.60;1.50;;;;;;;9.68;54.63;100927.31;107586;1251;108934;-62
2024/04/04 02:34:49;;;;;;;7.10;3.10;;;;;;;9.68;54.88;100923.55;107580;1251;107606;-63
2024/04/04 02:37:17;;;;;;;13.90;1.70;;;;;;;9.69;54.95;100917.94;107508;1254;100603;-61
2024/04/04 02:39:45;;;;;;;6.60;1.50;;;;;;;9.69;54.98;100919.40;107590;1251;100548;-62
2024/04/04 02:42:13;;;;;;;7.90;1.70;;;;;;;9.68;54.83;100914.46;107641;1251;114883;-62
2024/04/04 02:44:41;;;;;;;3.50;1.70;;;;;;;9.66;55.01;100915.69;107647;1250;107471;-62
2024/04/04 02:47:10;;;;;;;4.90;1.60;;;;;;;9.66;54.81;100910.27;107579;1251;108217;-61
2024/04/04 02:49:38;;;;;;;5.50;1.50;;;;;;;9.71;54.36;100903.27;107539;1251;100513;-62
2024/04/04 02:52:06;;;;;;;5.40;1.60;;;;;;;9.80;52.77;100909.54;107483;1254;100514;-62
2024/04/04 02:54:35;;;;;;;11.90;2.20;;;;;;;9.88;52.73;100905.67;107533;1256;114219;-62
2024/04/04 02:57:03;;;;;;;14.20;2.50;;;;;;;9.92;53.46;100906.90;107538;1252;108634;-61
2024/04/04 02:59:32;;;;;;;10.50;2.00;;;;;;;9.90;53.86;100904.05;107431;1252;107725;-64
2024/04/04 03:02:00;;;;;;;4.90;1.40;;;;;;;9.87;53.90;100901.23;107513;1254;100536;-61
2024/04/04 03:04:28;;;;;;;10.90;1.90;;;;;;;9.82;54.23;100900.55;107534;1254;101055;-62
2024/04/04 03:06:56;;;;;;;12.20;1.90;;;;;;;9.79;54.37;100897.83;107509;1253;114090;-62
2024/04/04 03:09:25;;;;;;;12.60;1.90;;;;;;;9.76;54.77;100901.05;107512;1254;107876;-63
2024/04/04 03:11:53;;;;;;;5.50;1.80;;;;;;;9.75;54.95;100901.00;107479;1254;107888;-62
2024/04/04 03:14:22;;;;;;;12.00;4.00;;;;;;;9.71;54.99;100896.48;107490;1253;100554;-62
2024/04/04 03:16:50;;;;;;;8.30;2.00;;;;;;;9.69;55.16;100896.47;107543;1253;101071;-62
2024/04/04 03:19:18;;;;;;;6.70;1.70;;;;;;;9.66;55.14;100898.98;107549;1254;114818;-63
2024/04/04 03:21:46;;;;;;;9.90;2.10;;;;;;;9.63;55.24;100901.96;107514;1253;108326;-63
2024/04/04 03:24:15;;;;;;;11.60;2.10;;;;;;;9.59;55.31;100899.06;107502;1252;106825;-63
2024/04/04 03:26:43;;;;;;;7.60;3.70;;;;;;;9.54;55.54;100900.88;107493;1253;100538;-63
2024/04/04 03:29:11;;;;;;;10.50;3.30;;;;;;;9.48;55.74;100900.14;107492;1254;100651;-62
2024/04/04 03:31:39;;;;;;;10.50;3.30;;;;;;;9.46;56.12;100903.00;107553;1251;113656;-63
2024/04/04 03:34:08;;;;;;;13.70;2.70;;;;;;;9.44;56.28;100910.52;107582;1254;108298;-62
2024/04/04 03:36:36;;;;;;;6.90;1.80;;;;;;;9.40;56.01;100912.79;107541;1254;108395;-63
2024/04/04 03:39:04;;;;;;;9.40;1.90;;;;;;;9.36;56.11;100914.52;107583;1256;100519;-63
2024/04/04 03:41:32;;;;;;;12.60;1.80;;;;;;;9.33;56.22;100921.06;107622;1253;100414;-63
2024/04/04 03:44:01;;;;;;;3.20;1.40;;;;;;;9.30;56.35;100921.13;107575;1254;114552;-62
2024/04/04 03:46:30;;;;;;;12.00;2.20;;;;;;;9.27;56.18;100918.14;107547;1252;108376;-64
2024/04/04 03:48:58;;;;;;;16.70;3.70;;;;;;;9.19;56.33;100917.71;107498;1256;107762;-62
2024/04/04 03:51:28;;;;;;;9.10;2.50;;;;;;;9.10;56.54;100920.23;107525;1254;100523;-61
2024/04/04 03:53:56;;;;;;;10.40;3.10;;;;;;;9.03;56.78;100921.63;107585;1254;100444;-61
2024/04/04 03:56:24;;;;;;;7.70;2.30;;;;;;;8.97;56.78;100926.64;107576;1254;114558;-62
2024/04/04 03:58:53;;;;;;;17.90;2.40;;;;;;;8.94;56.79;100930.40;107558;1254;107960;-61
2024/04/04 04:01:21;;;;;;;20.00;2.40;;;;;;;8.93;56.85;100940.81;107558;1254;107828;-63
2024/04/04 04:03:51;;;;;;;24.00;3.00;;;;;;;8.94;57.00;100937.91;107553;1254;100530;-63
2024/04/04 04:06:19;;;;;;;19.50;3.80;;;;;;;8.96;57.34;100934.87;107563;1251;101257;-63
2024/04/04 04:08:47;;;;;;;8.50;2.20;;;;;;;8.97;57.19;100933.36;107612;1251;114529;-63
2024/04/04 04:11:15;;;;;;;23.40;2.30;;;;;;;8.99;57.34;100928.58;107577;1252;107493;-62
2024/04/04 04:13:47;;;;;;;22.50;3.40;;;;;;;9.01;57.50;100926.61;107574;1253;107735;-64
2024/04/04 04:16:15;;;;;;;42.80;4.10;;;;;;;9.02;57.60;100930.79;107556;1255;100529;-63
2024/04/04 04:18:44;;;;;;;21.00;2.90;;;;;;;9.04;57.74;100934.64;107556;1254;100523;-65
2024/04/04 04:21:20;;;;;;;15.10;2.40;;;;;;;9.05;57.78;100939.92;107591;1253;114925;-65
2024/04/04 04:23:50;;;;;;;16.90;2.80;;;;;;;9.06;57.96;100942.85;107582;1254;108516;-65
2024/04/04 04:26:18;;;;;;;21.20;2.70;;;;;;;9.08;57.99;100941.30;107585;1254;107309;-65
2024/04/04 04:28:46;;;;;;;22.70;2.80;;;;;;;9.07;57.78;100946.36;107549;1253;100552;-65
2024/04/04 04:31:26;;;;;;;26.70;2.40;;;;;;;9.08;57.93;100946.45;107546;1253;101066;-63
2024/04/04 04:33:56;;;;;;;20.40;3.20;;;;;;;9.06;57.85;100948.38;107578;1254;113470;-62
2024/04/04 04:36:26;;;;;;;34.00;3.80;;;;;;;9.07;58.07;100952.45;107526;1253;107471;-63
2024/04/04 04:38:54;;;;;;;35.80;4.20;;;;;;;9.07;58.42;100954.07;107607;1254;108465;-63
2024/04/04 04:41:22;;;;;;;45.40;5.90;;;;;;;9.06;58.43;100956.12;107564;1253;100544;-63
2024/04/04 04:43:51;;;;;;;38.60;4.00;;;;;;;9.06;58.39;100958.80;107582;1254;101058;-64
2024/04/04 04:46:19;;;;;;;37.10;3.70;;;;;;;9.08;58.79;100960.08;107579;1253;114691;-64
2024/04/04 04:48:47;;;;;;;55.50;4.80;;;;;;;9.12;59.29;100957.98;107600;1254;108801;-64
2024/04/04 04:51:16;;;;;;;43.30;3.90;;;;;;;9.13;58.96;100959.17;107547;1254;108552;-64
2024/04/04 04:53:44;;;;;;;40.10;3.90;;;;;;;9.13;59.58;100951.44;107481;1255;100636;-63
2024/04/04 04:56:12;;;;;;;26.50;2.40;;;;;;;9.11;59.55;100952.67;107550;1256;100651;-63
2024/04/04 04:58:40;;;;;;;13.60;2.50;;;;;;;9.10;59.83;100950.33;107505;1253;114845;-62
2024/04/04 05:01:10;;;;;;;43.30;4.80;;;;;;;9.07;59.94;100950.66;107612;1253;108960;-63
2024/04/04 05:03:39;;;;;;;19.80;1.90;;;;;;;9.05;59.84;100957.41;107530;1254;108486;-64
2024/04/04 05:06:07;;;;;;;11.30;2.20;;;;;;;9.06;59.77;100954.68;107554;1251;100423;-63
2024/04/04 05:08:37;;;;;;;11.90;2.10;;;;;;;9.07;59.71;100955.64;107616;1251;100417;-63
2024/04/04 05:11:05;;;;;;;12.50;1.90;;;;;;;9.11;60.06;100952.52;107601;1251;113372;-64
2024/04/04 05:13:33;;;;;;;21.10;1.80;;;;;;;9.12;60.10;100953.31;107587;1254;108869;-63
2024/04/04 05:16:02;;;;;;;18.20;2.80;;;;;;;9.15;60.12;100957.38;107595;1254;107765;-63
2024/04/04 05:18:31;;;;;;;19.40;3.10;;;;;;;9.20;60.21;100950.70;107591;1253;100525;-63
2024/04/04 05:21:02;;;;;;;27.00;3.10;;;;;;;9.22;59.90;100947.83;107603;1254;101064;-63
2024/04/04 05:23:31;;;;;;;38.30;2.80;;;;;;;9.26;59.87;100947.04;107596;1254;112798;-63
2024/04/04 05:26:00;;;;;;;40.00;2.80;;;;;;;9.29;59.79;100950.73;107560;1254;107660;-62
2024/04/04 05:28:30;;;;;;;18.10;2.50;;;;;;;9.33;60.00;100950.08;107509;1254;107795;-64
2024/04/04 05:31:00;;;;;;;29.70;2.40;;;;;;;9.37;59.78;100950.75;107469;1256;100424;-64
2024/04/04 05:33:29;;;;;;;45.50;2.80;;;;;;;9.45;59.54;100952.88;107521;1256;100645;-62
2024/04/04 05:35:57;;;;;;;52.30;3.10;;;;;;;9.50;59.71;100951.87;107503;1253;113885;-63
2024/04/04 05:38:25;;;;;;;26.20;2.90;;;;;;;9.58;59.42;100955.39;107388;1253;107949;-64
2024/04/04 05:40:53;;;;;;;37.90;3.40;;;;;;;9.64;59.39;100958.06;107479;1253;107244;-62
2024/04/04 05:43:21;;;;;;;33.20;3.00;;;;;;;9.74;59.26;100959.45;107466;1256;100531;-63
2024/04/04 05:45:49;;;;;;;29.30;3.40;;;;;;;9.83;59.12;100959.73;107522;1253;101215;-63
2024/04/04 05:48:18;;;;;;;26.40;4.00;;;;;;;9.95;57.50;100962.71;107510;1254;114831;-64
2024/04/04 05:50:46;;;;;;;21.90;4.00;;;;;;;10.13;56.24;100960.55;107527;1254;107699;-64
2024/04/04 05:53:14;;;;;;;28.20;4.00;;;;;;;10.30;54.88;100967.34;107476;1254;107622;-64
2024/04/04 05:55:44;;;;;;;18.80;4.60;;;;;;;10.51;54.00;100965.08;107527;1254;100530;-64
2024/04/04 05:58:12;;;;;;;20.90;4.20;;;;;;;10.72;53.25;100963.45;107593;1252;101190;-64
2024/04/04 06:00:40;;;;;;;20.00;3.80;;;;;;;10.90;53.42;100964.07;107592;1254;114044;-64
2024/04/04 06:03:09;;;;;;;21.30;4.10;;;;;;;11.08;52.48;100967.05;107658;1254;107862;-64
2024/04/04 06:05:37;;;;;;;15.80;5.30;;;;;;;11.24;52.31;100965.41;107572;1254;108742;-63
2024/04/04 06:08:06;;;;;;;45.40;8.70;;;;;;;11.40;52.40;100961.14;107601;1251;100521;-62
2024/04/04 06:10:35;;;;;;;53.40;9.90;;;;;;;11.54;52.33;100963.33;107609;1255;101045;-62
2024/04/04 06:13:04;;;;;;;27.00;7.00;;;;;;;11.69;52.19;100964.38;107607;1253;113377;-63
2024/04/04 06:15:32;;;;;;;25.10;6.40;;;;;;;11.83;51.84;100965.09;107571;1254;107842;-63
2024/04/04 06:18:01;;;;;;;38.10;7.50;;;;;;;11.97;51.76;100967.08;107610;1254;107484;-64
2024/04/04 06:20:29;;;;;;;27.00;4.50;;;;;;;12.13;50.89;100973.89;107519;1253;100611;-64
2024/04/04 06:22:57;;;;;;;19.50;4.10;;;;;;;12.29;49.53;100971.02;107621;1254;100617;-63
2024/04/04 06:25:26;;;;;;;15.00;3.50;;;;;;;12.46;47.56;100971.55;107524;1254;114593;-63
2024/04/04 06:27:54;;;;;;;11.40;3.50;;;;;;;12.61;47.99;100967.30;107578;1254;108453;-62
2024/04/04 06:30:22;;;;;;;13.20;3.50;;;;;;;12.76;46.93;100968.93;107548;1254;111528;-62
2024/04/04 06:32:50;;;;;;;11.00;3.20;;;;;;;12.90;45.56;100965.96;107590;1254;100524;-65
2024/04/04 06:35:18;;;;;;;11.90;2.50;;;;;;;13.08;45.00;100971.65;107619;1254;100697;-63
2024/04/04 06:37:49;;;;;;;20.80;3.00;;;;;;;13.26;44.68;100967.60;107585;1254;115171;-63
2024/04/04 06:40:17;;;;;;;10.30;2.50;;;;;;;13.43;44.26;100962.93;107460;1255;108666;-62
2024/04/04 06:42:46;;;;;;;19.10;5.80;;;;;;;13.57;44.04;100964.13;107539;1254;106954;-62
2024/04/04 06:45:14;;;;;;;14.70;3.90;;;;;;;13.73;44.21;100965.23;107521;1254;100536;-62
2024/04/04 06:47:42;;;;;;;16.90;3.20;;;;;;;13.93;43.70;100968.34;107538;1252;101067;-63
2024/04/04 06:50:10;;;;;;;12.10;2.60;;;;;;;14.11;43.90;100967.45;107506;1254;113601;-62
2024/04/04 06:52:49;;;;;;;10.30;3.20;;;;;;;14.26;42.78;100964.96;107567;1254;107655;-64
2024/04/04 06:55:17;;;;;;;13.30;3.20;;;;;;;14.41;41.76;100960.95;107544;1254;108673;-64
2024/04/04 06:57:46;;;;;;;26.20;3.90;;;;;;;14.54;41.75;100960.07;107599;1251;100747;-62
2024/04/04 07:00:16;;;;;;;12.70;3.40;;;;;;;14.65;41.85;100954.89;107603;1251;100555;-63
2024/04/04 07:02:44;;;;;;;17.10;3.30;;;;;;;14.81;41.87;100955.66;107618;1251;113620;-63
2024/04/04 07:05:12;;;;;;;20.30;2.90;;;;;;;15.00;41.72;100951.19;107579;1256;108543;-62
2024/04/04 07:07:41;;;;;;;11.00;2.70;;;;;;;15.22;40.77;100953.91;107578;1254;108266;-63
2024/04/04 07:10:09;;;;;;;19.00;3.70;;;;;;;15.46;40.28;100951.60;107567;1254;100679;-63
2024/04/04 07:12:37;;;;;;;20.40;3.40;;;;;;;15.72;40.61;100950.84;107615;1254;100421;-63
2024/04/04 07:15:07;;;;;;;13.70;2.50;;;;;;;15.98;39.13;100955.23;107601;1254;114215;-63
2024/04/04 07:17:35;;;;;;;24.30;3.50;;;;;;;16.22;38.49;100952.70;107629;1254;108641;-63
2024/04/04 07:20:05;;;;;;;18.80;3.80;;;;;;;16.40;38.63;100953.17;107601;1254;108535;-63
2024/04/04 07:22:35;;;;;;;39.40;4.90;;;;;;;16.60;38.91;100952.52;107525;1253;100644;-63
2024/04/04 07:25:03;;;;;;;28.70;5.10;;;;;;;16.77;39.35;100956.23;107565;1256;101032;-63
2024/04/04 07:27:31;;;;;;;23.20;4.20;;;;;;;16.90;39.45;100955.45;107640;1254;113843;-62
2024/04/04 07:30:00;;;;;;;30.50;5.10;;;;;;;17.00;39.27;100954.51;107679;1256;107988;-63
2024/04/04 07:32:28;;;;;;;24.40;4.20;;;;;;;17.12;39.49;100955.42;107658;1251;107532;-64
2024/04/04 07:35:01;;;;;;;18.90;4.10;;;;;;;17.20;39.27;100956.66;107502;1251;100575;-63
2024/04/04 07:37:29;;;;;;;22.20;3.30;;;;;;;17.30;39.43;100957.48;107543;1254;100446;-63
2024/04/04 07:39:58;;;;;;;12.70;3.00;;;;;;;17.38;37.47;100963.71;107594;1254;112959;-62
2024/04/04 07:42:26;;;;;;;3.80;2.30;;;;;;;17.37;37.33;100959.23;107575;1254;107695;-62
2024/04/04 07:44:55;;;;;;;12.70;2.10;;;;;;;17.42;37.72;100964.52;107556;1253;108271;-61
2024/04/04 07:47:23;;;;;;;4.90;1.80;;;;;;;17.44;37.11;100970.50;107533;1251;100567;-62
2024/04/04 07:49:51;;;;;;;5.70;2.10;;;;;;;17.45;37.16;100976.10;107616;1256;100552;-62
2024/04/04 07:52:20;;;;;;;8.00;2.30;;;;;;;17.43;36.96;100982.20;107621;1257;115223;-62
2024/04/04 07:54:50;;;;;;;7.70;2.10;;;;;;;17.41;37.18;100983.70;107515;1254;108441;-62
2024/04/04 07:57:19;;;;;;;11.20;2.40;;;;;;;17.46;37.71;100986.69;106968;1254;771858;-63
2024/04/04 07:59:47;;;;;;;13.30;2.60;;;;;;;17.58;37.46;100990.99;107598;1254;100494;-63
2024/04/04 08:02:16;;;;;;;13.70;3.00;;;;;;;17.63;37.34;100995.57;107537;1254;101077;-63
2024/04/04 08:04:44;;;;;;;4.20;2.30;;;;;;;17.66;37.53;100991.67;107554;1254;113896;-63
2024/04/04 08:07:12;;;;;;;22.90;3.20;;;;;;;17.78;37.92;100995.02;107526;1254;107920;-63
2024/04/04 08:09:41;;;;;;;12.60;3.80;;;;;;;17.87;37.79;100992.42;107485;1254;108473;-65
2024/04/04 08:12:09;;;;;;;17.50;3.70;;;;;;;17.93;37.63;100992.16;107501;1256;100535;-63
2024/04/04 08:14:37;;;;;;;9.10;3.00;;;;;;;17.90;37.50;101000.70;107509;1254;100407;-62
2024/04/04 08:17:05;;;;;;;9.60;3.00;;;;;;;17.85;37.12;100992.98;107497;1256;116613;-62
2024/04/04 08:19:33;;;;;;;14.60;2.80;;;;;;;17.76;36.79;100996.33;107530;1254;108450;-64
2024/04/04 08:22:01;;;;;;;11.30;3.20;;;;;;;17.77;36.95;100994.98;107470;1253;107589;-62
2024/04/04 08:24:29;;;;;;;10.20;2.80;;;;;;;17.81;36.94;100991.89;107535;1254;100690;-64
2024/04/04 08:26:57;;;;;;;11.60;2.60;;;;;;;17.93;37.35;100988.60;107545;1254;100525;-64
2024/04/04 08:29:26;;;;;;;13.70;2.10;;;;;;;18.07;37.21;100993.14;107520;1254;114637;-63
2024/04/04 08:31:55;;;;;;;8.90;2.20;;;;;;;18.14;37.19;100991.80;107506;1254;108554;-63
2024/04/04 08:34:23;;;;;;;10.80;2.70;;;;;;;18.12;37.35;100993.27;107497;1253;107689;-63
2024/04/04 08:36:51;;;;;;;10.70;2.70;;;;;;;18.09;37.54;100994.52;107520;1253;100516;-62
2024/04/04 08:39:20;;;;;;;13.40;3.00;;;;;;;18.12;37.97;100991.84;107505;1254;100431;-62
2024/04/04 08:41:48;;;;;;;14.20;2.70;;;;;;;18.09;37.52;100999.08;107478;1256;113773;-62
2024/04/04 08:44:17;;;;;;;9.70;2.70;;;;;;;17.91;37.33;101003.20;107539;1254;107202;-63
2024/04/04 08:46:46;;;;;;;4.60;2.00;;;;;;;17.66;37.70;101006.33;107578;1254;107730;-62
2024/04/04 08:49:18;;;;;;;11.50;2.60;;;;;;;17.53;37.92;101002.95;107510;1253;100571;-62
2024/04/04 08:51:48;;;;;;;11.10;2.40;;;;;;;17.47;38.19;101000.74;107646;1251;100549;-63
2024/04/04 08:54:20;;;;;;;10.60;2.30;;;;;;;17.45;38.04;101000.66;107507;1251;114418;-63
2024/04/04 08:56:49;;;;;;;6.70;1.70;;;;;;;17.40;38.13;101001.34;107551;1254;106817;-62
2024/04/04 08:59:18;;;;;;;5.90;2.00;;;;;;;17.36;38.17;101007.23;107533;1251;107243;-62
2024/04/04 09:01:47;;;;;;;10.40;3.20;;;;;;;17.28;38.13;101006.20;107573;1256;100521;-62
2024/04/04 09:04:30;;;;;;;12.00;3.40;;;;;;;17.28;38.45;101012.73;107532;1251;100599;-62
2024/04/04 09:06:58;;;;;;;10.30;3.50;;;;;;;17.30;38.81;101018.77;107536;1254;114860;-62
2024/04/04 09:09:26;;;;;;;10.20;2.60;;;;;;;17.38;39.38;101015.73;107529;1255;108299;-62
2024/04/04 09:11:55;;;;;;;6.90;3.20;;;;;;;17.45;39.80;101014.30;107463;1254;107966;-61
2024/04/04 09:14:23;;;;;;;4.40;1.40;;;;;;;17.53;39.68;101008.02;107517;1257;100511;-62
2024/04/04 09:16:51;;;;;;;10.40;1.90;;;;;;;17.65;39.69;101007.90;107433;1255;100461;-61
2024/04/04 09:19:20;;;;;;;11.80;1.50;;;;;;;17.77;39.65;101003.80;107580;1255;114523;-61
2024/04/04 09:21:48;;;;;;;8.70;1.10;;;;;;;17.89;39.76;100995.95;107610;1254;107529;-63
2024/04/04 09:24:16;;;;;;;7.10;1.70;;;;;;;18.01;39.38;100994.02;107535;1257;107961;-63
2024/04/04 09:26:46;;;;;;;10.50;1.40;;;;;;;18.14;39.17;100991.80;107498;1254;100413;-63
2024/04/04 09:29:17;;;;;;;11.10;1.60;;;;;;;18.26;39.07;100987.08;107645;1256;100522;-62
2024/04/04 09:31:47;;;;;;;9.90;1.60;;;;;;;18.43;38.95;100988.38;107502;1254;114605;-63
2024/04/04 09:34:17;;;;;;;10.20;1.60;;;;;;;18.60;38.76;100990.69;107524;1251;106876;-62
2024/04/04 09:36:46;;;;;;;2.00;1.00;;;;;;;18.80;38.02;100990.34;107552;1251;108595;-62
2024/04/04 09:39:19;;;;;;;11.60;1.60;;;;;;;19.01;37.87;100993.63;107552;1251;100532;-63
2024/04/04 09:41:49;;;;;;;;;;;;;;;19.24;37.39;100992.14;107495;1254;100428;-62
2024/04/04 09:44:18;;;;;;;2.60;0.70;;;;;;;19.48;36.85;100991.23;107492;1253;114082;-64
2024/04/04 09:46:48;;;;;;;3.20;2.00;;;;;;;19.62;35.93;100990.89;107548;1254;108457;-62
2024/04/04 09:49:17;;;;;;;4.20;1.60;;;;;;;19.64;36.07;100994.40;107556;1255;108560;-63
2024/04/04 09:51:50;;;;;;;12.40;2.50;;;;;;;19.62;36.20;100997.34;107559;1251;101206;-62
2024/04/04 09:54:20;;;;;;;11.70;2.20;;;;;;;19.62;36.29;100994.95;107525;1251;100548;-62
2024/04/04 09:56:49;;;;;;;23.50;2.90;;;;;;;19.61;36.77;100994.56;107541;1251;113915;-61
2024/04/04 09:59:29;;;;;;;11.30;2.20;;;;;;;19.70;36.51;100994.67;107580;1255;108316;-62
2024/04/04 10:02:05;;;;;;;8.40;1.80;;;;;;;19.76;36.24;100988.84;107541;1254;107303;-64
2024/04/04 10:04:37;;;;;;;14.10;3.20;;;;;;;19.82;36.54;100989.62;107576;1254;100537;-63
2024/04/04 10:07:05;;;;;;;7.90;2.10;;;;;;;19.92;36.50;100987.08;107607;1251;100522;-64
2024/04/04 10:09:38;;;;;;;6.60;2.30;;;;;;;20.00;35.78;100980.64;107449;1254;114418;-63
2024/04/04 10:12:14;;;;;;;9.30;3.20;;;;;;;20.08;35.90;100980.02;107599;1255;107401;-63
2024/04/04 10:14:53;;;;;;;15.50;2.40;;;;;;;20.14;36.11;100982.52;107568;1251;107188;-63
2024/04/04 10:17:21;;;;;;;11.10;3.10;;;;;;;20.29;35.80;100980.81;107586;1254;100520;-63
2024/04/04 10:19:52;;;;;;;14.60;3.20;;;;;;;20.48;35.75;100984.80;107543;1256;100511;-63
2024/04/04 10:22:24;;;;;;;11.40;3.20;;;;;;;20.81;35.64;100980.95;107588;1251;113900;-63
2024/04/04 10:25:02;;;;;;;16.30;3.00;;;;;;;21.32;34.45;100978.86;107629;1254;108551;-63
2024/04/04 10:27:31;;;;;;;16.00;3.70;;;;;;;21.85;34.11;100978.47;107607;1253;108830;-63
2024/04/04 10:29:59;;;;;;;13.40;4.00;;;;;;;22.64;33.15;100974.28;107667;1251;100683;-63
2024/04/04 10:32:28;;;;;;;12.00;3.40;;;;;;;23.55;32.42;100968.48;107588;1256;100417;-64
2024/04/04 10:35:04;;;;;;;12.10;3.70;;;;;;;24.20;31.63;100971.25;107581;1254;113916;-62
2024/04/04 10:37:32;;;;;;;11.10;3.80;;;;;;;24.67;30.15;100973.21;107572;1253;108381;-62
2024/04/04 10:40:01;;;;;;;9.90;3.20;;;;;;;25.14;30.09;100971.94;107542;1254;108637;-63
2024/04/04 10:42:30;;;;;;;8.80;3.10;;;;;;;25.75;28.07;100969.32;107556;1254;100427;-63
2024/04/04 10:44:58;;;;;;;10.90;2.70;;;;;;;26.02;28.40;100971.72;107673;1254;101077;-63
2024/04/04 10:47:27;;;;;;;8.60;2.40;;;;;;;26.52;27.65;100965.23;107601;1254;115875;-62
2024/04/04 10:49:56;;;;;;;21.00;3.40;;;;;;;26.99;27.02;100966.48;107616;1254;108803;-63
2024/04/04 10:52:24;;;;;;;14.00;2.50;;;;;;;27.27;27.41;100962.66;107544;1254;108388;-64
2024/04/04 10:54:52;;;;;;;7.00;1.60;;;;;;;27.38;26.82;100962.33;107580;1254;100523;-63
2024/04/04 10:57:20;;;;;;;9.50;2.20;;;;;;;27.11;25.46;100958.11;107595;1254;100494;-63
2024/04/04 10:59:49;;;;;;;14.00;2.30;;;;;;;26.81;26.29;100962.13;107596;1254;114673;-64
2024/04/04 11:02:19;;;;;;;10.10;2.30;;;;;;;26.85;26.42;100962.90;107544;1254;108361;-63
2024/04/04 11:04:49;;;;;;;19.10;2.20;;;;;;;27.01;26.25;100961.16;107627;1252;107549;-64
2024/04/04 11:07:19;;;;;;;9.80;2.00;;;;;;;27.09;26.34;100963.70;107542;1250;100517;-63
2024/04/04 11:09:47;;;;;;;5.40;1.30;;;;;;;26.86;25.81;100966.37;107576;1251;100609;-64
2024/04/04 11:12:16;;;;;;;9.30;1.80;;;;;;;26.47;25.68;100964.45;107437;1254;113766;-63
2024/04/04 11:14:45;;;;;;;5.30;1.60;;;;;;;26.05;26.02;100969.74;107590;1254;108655;-63
2024/04/04 11:17:13;;;;;;;5.80;1.60;;;;;;;25.44;26.24;100968.59;107608;1254;107433;-62